createdAt,value
2018-07-05T00:10:00.744Z,4.2
2018-07-05T00:30:01.053Z,6.0
2018-07-05T00:50:01.194Z,8.6
2018-07-05T01:10:00.475Z,5.0
2018-07-05T01:30:00.628Z,10.2
2018-07-05T01:50:00.831Z,4.0
2018-07-05T02:10:01.027Z,6.2
2018-07-05T02:30:00.298Z,5.0
2018-07-05T02:50:00.444Z,6.0
2018-07-05T03:10:00.544Z,3.6
2018-07-05T03:30:00.946Z,5.4
2018-07-05T03:50:01.067Z,6.8
2018-07-05T04:10:00.314Z,5.0
2018-07-05T04:30:00.449Z,6.0
2018-07-05T04:50:00.706Z,6.6
2018-07-05T05:10:00.835Z,5.0
2018-07-05T05:30:01.166Z,5.0
2018-07-05T05:50:00.217Z,4.0
2018-07-05T06:10:00.488Z,3.0
2018-07-05T06:30:00.727Z,2.2
2018-07-05T06:50:00.967Z,2.0
2018-07-05T07:10:01.092Z,2.0
2018-07-05T07:30:00.369Z,3.0
2018-07-05T07:50:00.516Z,2.0
2018-07-05T08:10:00.828Z,2.6
2018-07-05T08:30:01.001Z,3.0
2018-07-05T08:50:01.100Z,2.0
2018-07-05T09:10:00.331Z,3.0
2018-07-05T09:30:00.514Z,2.6
2018-07-05T09:50:00.777Z,3.0
2018-07-05T10:10:00.890Z,4.0
2018-07-05T10:30:01.169Z,6.4
2018-07-05T10:50:00.380Z,4.0
2018-07-05T11:10:00.630Z,4.0
2018-07-05T11:30:00.803Z,4.0
2018-07-05T11:50:01.020Z,4.0
2018-07-05T12:10:01.210Z,3.2
2018-07-05T12:30:00.305Z,3.0
2018-07-05T12:50:00.554Z,3.2
2018-07-05T13:10:00.663Z,3.0
2018-07-05T13:30:00.914Z,2.0
2018-07-05T13:50:01.112Z,2.0
2018-07-05T14:10:00.295Z,3.2
2018-07-05T14:30:00.582Z,4.0
2018-07-05T14:50:00.810Z,2.0
2018-07-05T15:10:00.922Z,3.0
2018-07-05T15:30:01.226Z,4.0
2018-07-05T15:50:00.342Z,4.4
2018-07-05T16:10:00.593Z,4.0
2018-07-05T16:30:00.755Z,3.0
2018-07-05T16:50:01.002Z,4.0
2018-07-05T17:10:00.853Z,4.0
2018-07-05T17:30:00.374Z,3.0
2018-07-05T17:50:00.498Z,3.8
2018-07-05T18:10:00.753Z,4.0
2018-07-05T18:30:01.000Z,2.0
2018-07-05T18:50:01.124Z,3.0
2018-07-05T19:10:00.389Z,2.0
2018-07-05T19:30:00.539Z,4.0
2018-07-05T19:50:00.822Z,3.0
2018-07-05T20:10:01.044Z,2.6
2018-07-05T20:30:01.271Z,4.6
2018-07-05T20:50:00.373Z,9.2
2018-07-05T21:10:00.549Z,11.2
2018-07-05T21:30:00.799Z,12.6
2018-07-05T21:50:00.924Z,11.6
2018-07-05T22:10:01.182Z,12.4
2018-07-05T22:30:00.432Z,9.0
2018-07-05T22:50:00.584Z,7.2
2018-07-05T23:10:00.787Z,9.2
2018-07-05T23:30:00.923Z,8.0
2018-07-05T23:50:01.254Z,5.0
